Weather at Balmaceda Airport

Public forecast

Using degrees Celsius for public forecast. Weather courtesy of forecast.io.

Current aviation weather report (METAR) for Balmaceda Airport

Report is more than 2 hours old.

Retrieved 2021/04/21 22:00 UTC (3 hours ago):

SCBA 212200Z 30019KT CAVOK 08/00 Q1012

Aviation forecast (TAF) for Balmaceda Airport

Retrieved 2021-04-22 00:00 UTC (50 minutes ago):

TAF SCBA 212224Z 2200/2300 30009KT 9999 FEW040 TN01/2209Z TX10/2218Z BECMG 2203/2205 FEW030 BKN100 TEMPO 2213/2219 8000 -SHRA BKN040